BKPR/PRN METAR and TAF weather

Enter ICAO airport designator
Station Type Date Time Source
BKPR METAR 2019/06/17 13:00 UTC NOAA

BKPR 171300Z 36009KT 330V050 9999 TS SCT030CB SCT040 27/15 Q1015 NOSIG


Station Type Date Time Source
BKPR Decoded METAR 2019/06/17 13:00 UTC NOAA

Station name not available
Jun 17, 2019 - 09:00 AM EDT / 2019.06.17 1300 UTC
Wind: from the N (360 degrees) at 10 MPH (9 KT) (direction variable):0
Visibility: greater than 7 mile(s):0
Sky conditions: partly cloudy
Weather: thunder; Cumulonimbus clouds observed
Temperature: 80 F (27 C)
Dew Point: 59 F (15 C)
Relative Humidity: 47%
Pressure (altimeter): 29.97 in. Hg (1015 hPa)
ob: BKPR 171300Z 36009KT 330V050 9999 TS SCT030CB SCT040 27/15 Q1015 NOSIG
cycle: 13

Station Type Date Time Source
BKPR TAF 2019/06/17 12:30 UTC NOAA

TAF BKPR 171130Z 1712/1812 01008KT 9999 SCT050
TEMPO 1712/1721 VRB15G25KT 3000 TSRA SCT030CB
TEMPO 1803/1806 2500 BR

Example: see airport list